sensor_id;sensor_type;location;lat;lon;timestamp;P1;durP1;ratioP1;P2;durP2;ratioP2
51618;SDS011;38518;53.164;5.430;2023-02-12T00:00:05;35.40;;;13.07;;
51618;SDS011;38518;53.164;5.430;2023-02-12T00:02:32;31.52;;;10.52;;
51618;SDS011;38518;53.164;5.430;2023-02-12T00:04:58;32.65;;;11.63;;
51618;SDS011;38518;53.164;5.430;2023-02-12T00:07:24;38.53;;;15.15;;
51618;SDS011;38518;53.164;5.430;2023-02-12T00:09:50;36.38;;;11.98;;
51618;SDS011;38518;53.164;5.430;2023-02-12T00:12:15;30.65;;;11.55;;
51618;SDS011;38518;53.164;5.430;2023-02-12T00:14:41;39.28;;;15.98;;
51618;SDS011;38518;53.164;5.430;2023-02-12T00:17:07;42.80;;;14.75;;
51618;SDS011;38518;53.164;5.430;2023-02-12T00:19:33;35.88;;;14.98;;
51618;SDS011;38518;53.164;5.430;2023-02-12T00:21:58;34.80;;;15.25;;
51618;SDS011;38518;53.164;5.430;2023-02-12T00:24:24;41.47;;;17.92;;
51618;SDS011;38518;53.164;5.430;2023-02-12T00:26:51;40.85;;;17.70;;
51618;SDS011;38518;53.164;5.430;2023-02-12T00:29:16;31.60;;;11.35;;
51618;SDS011;38518;53.164;5.430;2023-02-12T00:31:42;28.60;;;12.93;;
51618;SDS011;38518;53.164;5.430;2023-02-12T00:34:08;46.70;;;20.00;;
51618;SDS011;38518;53.164;5.430;2023-02-12T00:36:35;37.03;;;15.07;;
51618;SDS011;38518;53.164;5.430;2023-02-12T00:39:00;41.15;;;16.20;;
51618;SDS011;38518;53.164;5.430;2023-02-12T00:41:26;46.88;;;17.70;;
51618;SDS011;38518;53.164;5.430;2023-02-12T00:43:52;38.75;;;20.40;;
51618;SDS011;38518;53.164;5.430;2023-02-12T00:46:18;40.42;;;18.80;;
51618;SDS011;38518;53.164;5.430;2023-02-12T00:48:45;42.92;;;16.13;;
51618;SDS011;38518;53.164;5.430;2023-02-12T00:51:10;40.92;;;19.00;;
51618;SDS011;38518;53.164;5.430;2023-02-12T00:53:36;44.95;;;22.70;;
51618;SDS011;38518;53.164;5.430;2023-02-12T00:56:03;41.33;;;19.35;;
51618;SDS011;38518;53.164;5.430;2023-02-12T00:58:29;43.22;;;18.38;;
51618;SDS011;38518;53.164;5.430;2023-02-12T01:00:55;40.28;;;17.90;;
51618;SDS011;38518;53.164;5.430;2023-02-12T01:03:21;38.78;;;18.17;;
51618;SDS011;38518;53.164;5.430;2023-02-12T01:05:47;43.83;;;23.02;;
51618;SDS011;38518;53.164;5.430;2023-02-12T01:08:13;43.47;;;18.55;;
51618;SDS011;38518;53.164;5.430;2023-02-12T01:10:40;71.32;;;21.27;;
51618;SDS011;38518;53.164;5.430;2023-02-12T01:13:08;43.45;;;17.73;;
51618;SDS011;38518;53.164;5.430;2023-02-12T01:15:38;38.40;;;18.08;;
51618;SDS011;38518;53.164;5.430;2023-02-12T01:18:04;44.45;;;23.52;;
51618;SDS011;38518;53.164;5.430;2023-02-12T01:20:30;41.53;;;18.90;;
51618;SDS011;38518;53.164;5.430;2023-02-12T01:22:55;51.40;;;21.17;;
51618;SDS011;38518;53.164;5.430;2023-02-12T01:25:21;45.42;;;22.92;;
51618;SDS011;38518;53.164;5.430;2023-02-12T01:27:47;46.70;;;18.10;;
51618;SDS011;38518;53.164;5.430;2023-02-12T01:30:13;52.38;;;25.90;;
51618;SDS011;38518;53.164;5.430;2023-02-12T01:32:39;53.55;;;23.23;;
51618;SDS011;38518;53.164;5.430;2023-02-12T01:35:06;47.50;;;17.95;;
51618;SDS011;38518;53.164;5.430;2023-02-12T01:37:34;53.83;;;26.33;;
51618;SDS011;38518;53.164;5.430;2023-02-12T01:40:01;46.40;;;19.50;;
51618;SDS011;38518;53.164;5.430;2023-02-12T01:42:28;56.30;;;20.42;;
51618;SDS011;38518;53.164;5.430;2023-02-12T01:47:39;43.58;;;18.95;;
51618;SDS011;38518;53.164;5.430;2023-02-12T01:50:10;92.03;;;32.80;;
51618;SDS011;38518;53.164;5.430;2023-02-12T01:52:40;52.88;;;20.08;;
51618;SDS011;38518;53.164;5.430;2023-02-12T01:55:10;46.45;;;18.48;;
51618;SDS011;38518;53.164;5.430;2023-02-12T01:57:37;49.90;;;25.17;;
51618;SDS011;38518;53.164;5.430;2023-02-12T02:00:08;47.92;;;18.17;;
51618;SDS011;38518;53.164;5.430;2023-02-12T02:02:36;54.00;;;25.80;;
51618;SDS011;38518;53.164;5.430;2023-02-12T02:05:03;47.80;;;20.25;;
51618;SDS011;38518;53.164;5.430;2023-02-12T02:07:31;51.80;;;18.92;;
51618;SDS011;38518;53.164;5.430;2023-02-12T02:09:57;58.08;;;27.42;;
51618;SDS011;38518;53.164;5.430;2023-02-12T02:12:24;57.35;;;22.02;;
51618;SDS011;38518;53.164;5.430;2023-02-12T02:15:09;57.25;;;20.30;;
51618;SDS011;38518;53.164;5.430;2023-02-12T02:23:08;95.25;;;23.02;;
51618;SDS011;38518;53.164;5.430;2023-02-12T02:25:51;59.90;;;27.70;;
51618;SDS011;38518;53.164;5.430;2023-02-12T02:34:23;73.00;;;23.75;;
51618;SDS011;38518;53.164;5.430;2023-02-12T02:37:05;54.80;;;19.42;;
51618;SDS011;38518;53.164;5.430;2023-02-12T02:39:49;72.35;;;20.60;;
51618;SDS011;38518;53.164;5.430;2023-02-12T02:45:27;50.35;;;18.70;;
51618;SDS011;38518;53.164;5.430;2023-02-12T02:48:05;55.50;;;21.42;;
51618;SDS011;38518;53.164;5.430;2023-02-12T02:50:41;63.47;;;20.80;;
51618;SDS011;38518;53.164;5.430;2023-02-12T02:53:14;66.60;;;27.35;;
51618;SDS011;38518;53.164;5.430;2023-02-12T02:55:47;50.10;;;20.58;;
51618;SDS011;38518;53.164;5.430;2023-02-12T02:58:20;65.10;;;21.17;;
51618;SDS011;38518;53.164;5.430;2023-02-12T03:00:56;54.88;;;25.88;;
51618;SDS011;38518;53.164;5.430;2023-02-12T03:03:37;62.70;;;21.77;;
51618;SDS011;38518;53.164;5.430;2023-02-12T03:06:21;53.50;;;19.90;;
51618;SDS011;38518;53.164;5.430;2023-02-12T03:09:03;49.45;;;17.70;;
51618;SDS011;38518;53.164;5.430;2023-02-12T03:11:36;44.05;;;17.52;;
51618;SDS011;38518;53.164;5.430;2023-02-12T03:14:07;44.13;;;18.33;;
51618;SDS011;38518;53.164;5.430;2023-02-12T03:16:55;46.35;;;21.95;;
51618;SDS011;38518;53.164;5.430;2023-02-12T03:19:32;51.28;;;17.65;;
51618;SDS011;38518;53.164;5.430;2023-02-12T03:22:18;48.83;;;17.23;;
51618;SDS011;38518;53.164;5.430;2023-02-12T03:24:50;48.72;;;17.45;;
51618;SDS011;38518;53.164;5.430;2023-02-12T03:29:53;53.92;;;19.48;;
51618;SDS011;38518;53.164;5.430;2023-02-12T03:35:14;46.30;;;20.23;;
51618;SDS011;38518;53.164;5.430;2023-02-12T03:40:36;67.25;;;21.52;;
51618;SDS011;38518;53.164;5.430;2023-02-12T03:43:14;63.80;;;26.08;;
51618;SDS011;38518;53.164;5.430;2023-02-12T03:45:50;55.97;;;18.23;;
51618;SDS011;38518;53.164;5.430;2023-02-12T03:51:04;52.35;;;17.63;;
51618;SDS011;38518;53.164;5.430;2023-02-12T03:53:36;66.47;;;26.63;;
51618;SDS011;38518;53.164;5.430;2023-02-12T03:56:04;63.30;;;20.50;;
51618;SDS011;38518;53.164;5.430;2023-02-12T03:58:41;66.88;;;22.30;;
51618;SDS011;38518;53.164;5.430;2023-02-12T04:01:08;108.03;;;21.35;;
51618;SDS011;38518;53.164;5.430;2023-02-12T04:03:34;62.38;;;26.45;;
51618;SDS011;38518;53.164;5.430;2023-02-12T04:06:00;93.95;;;25.42;;
51618;SDS011;38518;53.164;5.430;2023-02-12T04:08:26;62.10;;;19.42;;
51618;SDS011;38518;53.164;5.430;2023-02-12T04:17:05;70.25;;;20.45;;
51618;SDS011;38518;53.164;5.430;2023-02-12T04:23:10;71.80;;;22.58;;
51618;SDS011;38518;53.164;5.430;2023-02-12T04:28:31;78.20;;;23.20;;
51618;SDS011;38518;53.164;5.430;2023-02-12T04:34:07;77.57;;;28.90;;
51618;SDS011;38518;53.164;5.430;2023-02-12T04:36:52;75.38;;;25.48;;
51618;SDS011;38518;53.164;5.430;2023-02-12T04:39:20;71.50;;;21.55;;
51618;SDS011;38518;53.164;5.430;2023-02-12T04:41:49;69.38;;;20.77;;
51618;SDS011;38518;53.164;5.430;2023-02-12T04:44:21;84.35;;;27.23;;
51618;SDS011;38518;53.164;5.430;2023-02-12T04:46:49;76.53;;;28.58;;
51618;SDS011;38518;53.164;5.430;2023-02-12T04:49:17;98.32;;;27.73;;
51618;SDS011;38518;53.164;5.430;2023-02-12T04:51:44;68.32;;;21.17;;
51618;SDS011;38518;53.164;5.430;2023-02-12T04:54:11;103.40;;;26.75;;
51618;SDS011;38518;53.164;5.430;2023-02-12T04:56:38;74.97;;;24.52;;
51618;SDS011;38518;53.164;5.430;2023-02-12T04:59:04;71.70;;;26.77;;
51618;SDS011;38518;53.164;5.430;2023-02-12T05:01:30;72.97;;;24.52;;
51618;SDS011;38518;53.164;5.430;2023-02-12T05:03:58;73.88;;;29.95;;
51618;SDS011;38518;53.164;5.430;2023-02-12T05:06:23;74.05;;;23.25;;
51618;SDS011;38518;53.164;5.430;2023-02-12T05:08:51;109.97;;;32.42;;
51618;SDS011;38518;53.164;5.430;2023-02-12T05:11:17;71.22;;;29.85;;
51618;SDS011;38518;53.164;5.430;2023-02-12T05:13:43;91.03;;;22.45;;
51618;SDS011;38518;53.164;5.430;2023-02-12T05:16:11;68.25;;;28.17;;
51618;SDS011;38518;53.164;5.430;2023-02-12T05:18:37;73.22;;;23.05;;
51618;SDS011;38518;53.164;5.430;2023-02-12T05:21:03;69.43;;;26.00;;
51618;SDS011;38518;53.164;5.430;2023-02-12T05:23:29;67.55;;;21.92;;
51618;SDS011;38518;53.164;5.430;2023-02-12T05:25:57;67.07;;;23.90;;
51618;SDS011;38518;53.164;5.430;2023-02-12T05:28:24;77.40;;;22.83;;
51618;SDS011;38518;53.164;5.430;2023-02-12T05:30:50;59.33;;;24.08;;
51618;SDS011;38518;53.164;5.430;2023-02-12T05:33:16;59.30;;;22.42;;
51618;SDS011;38518;53.164;5.430;2023-02-12T05:35:42;61.75;;;25.88;;
51618;SDS011;38518;53.164;5.430;2023-02-12T05:38:07;68.65;;;24.25;;
51618;SDS011;38518;53.164;5.430;2023-02-12T05:40:33;69.57;;;20.67;;
51618;SDS011;38518;53.164;5.430;2023-02-12T05:43:00;62.65;;;21.02;;
51618;SDS011;38518;53.164;5.430;2023-02-12T05:45:26;63.05;;;21.05;;
51618;SDS011;38518;53.164;5.430;2023-02-12T05:47:53;74.63;;;30.08;;
51618;SDS011;38518;53.164;5.430;2023-02-12T05:50:21;51.45;;;19.85;;
51618;SDS011;38518;53.164;5.430;2023-02-12T05:52:46;71.05;;;23.58;;
51618;SDS011;38518;53.164;5.430;2023-02-12T05:55:12;61.63;;;22.17;;
51618;SDS011;38518;53.164;5.430;2023-02-12T05:57:38;67.03;;;29.00;;
51618;SDS011;38518;53.164;5.430;2023-02-12T06:00:05;55.70;;;20.63;;
51618;SDS011;38518;53.164;5.430;2023-02-12T06:02:35;51.22;;;20.48;;
51618;SDS011;38518;53.164;5.430;2023-02-12T06:05:01;68.10;;;27.98;;
51618;SDS011;38518;53.164;5.430;2023-02-12T06:07:27;59.22;;;20.20;;
51618;SDS011;38518;53.164;5.430;2023-02-12T06:09:53;61.85;;;25.95;;
51618;SDS011;38518;53.164;5.430;2023-02-12T06:12:19;62.95;;;26.40;;
51618;SDS011;38518;53.164;5.430;2023-02-12T06:14:45;61.28;;;26.83;;
51618;SDS011;38518;53.164;5.430;2023-02-12T06:17:11;71.05;;;27.60;;
51618;SDS011;38518;53.164;5.430;2023-02-12T06:19:37;62.20;;;23.33;;
51618;SDS011;38518;53.164;5.430;2023-02-12T06:22:03;65.07;;;23.70;;
51618;SDS011;38518;53.164;5.430;2023-02-12T06:24:29;58.42;;;20.33;;
51618;SDS011;38518;53.164;5.430;2023-02-12T06:26:54;65.10;;;22.05;;
51618;SDS011;38518;53.164;5.430;2023-02-12T06:29:20;57.53;;;23.73;;
51618;SDS011;38518;53.164;5.430;2023-02-12T06:31:46;60.70;;;20.50;;
51618;SDS011;38518;53.164;5.430;2023-02-12T06:34:13;57.75;;;21.08;;
51618;SDS011;38518;53.164;5.430;2023-02-12T06:36:42;62.30;;;26.40;;
51618;SDS011;38518;53.164;5.430;2023-02-12T06:39:09;57.85;;;24.40;;
51618;SDS011;38518;53.164;5.430;2023-02-12T06:41:39;55.25;;;20.20;;
51618;SDS011;38518;53.164;5.430;2023-02-12T06:44:05;63.88;;;22.25;;
51618;SDS011;38518;53.164;5.430;2023-02-12T06:46:31;62.03;;;22.02;;
51618;SDS011;38518;53.164;5.430;2023-02-12T06:48:57;59.53;;;25.73;;
51618;SDS011;38518;53.164;5.430;2023-02-12T06:51:25;62.10;;;27.55;;
51618;SDS011;38518;53.164;5.430;2023-02-12T06:53:53;62.83;;;26.48;;
51618;SDS011;38518;53.164;5.430;2023-02-12T06:56:20;64.65;;;27.77;;
51618;SDS011;38518;53.164;5.430;2023-02-12T06:58:53;64.95;;;26.42;;
51618;SDS011;38518;53.164;5.430;2023-02-12T07:01:21;64.28;;;27.20;;
51618;SDS011;38518;53.164;5.430;2023-02-12T07:03:50;55.80;;;21.33;;
51618;SDS011;38518;53.164;5.430;2023-02-12T07:06:18;62.67;;;23.38;;
51618;SDS011;38518;53.164;5.430;2023-02-12T07:08:44;55.70;;;27.13;;
51618;SDS011;38518;53.164;5.430;2023-02-12T07:11:10;60.67;;;22.15;;
51618;SDS011;38518;53.164;5.430;2023-02-12T07:13:36;66.00;;;26.05;;
51618;SDS011;38518;53.164;5.430;2023-02-12T07:16:08;62.10;;;22.73;;
51618;SDS011;38518;53.164;5.430;2023-02-12T07:18:36;58.15;;;27.95;;
51618;SDS011;38518;53.164;5.430;2023-02-12T07:21:02;74.78;;;31.02;;
51618;SDS011;38518;53.164;5.430;2023-02-12T07:23:29;54.42;;;24.60;;
51618;SDS011;38518;53.164;5.430;2023-02-12T07:26:00;65.45;;;30.33;;
51618;SDS011;38518;53.164;5.430;2023-02-12T07:28:34;55.50;;;26.38;;
51618;SDS011;38518;53.164;5.430;2023-02-12T07:31:10;59.55;;;26.35;;
51618;SDS011;38518;53.164;5.430;2023-02-12T07:33:38;57.15;;;21.83;;
51618;SDS011;38518;53.164;5.430;2023-02-12T07:36:05;59.17;;;21.55;;
51618;SDS011;38518;53.164;5.430;2023-02-12T07:38:33;52.97;;;21.80;;
51618;SDS011;38518;53.164;5.430;2023-02-12T07:41:07;55.70;;;21.45;;
51618;SDS011;38518;53.164;5.430;2023-02-12T07:43:38;62.70;;;29.67;;
51618;SDS011;38518;53.164;5.430;2023-02-12T07:46:06;62.75;;;29.70;;
51618;SDS011;38518;53.164;5.430;2023-02-12T07:48:40;59.85;;;29.05;;
51618;SDS011;38518;53.164;5.430;2023-02-12T07:51:07;55.45;;;27.98;;
51618;SDS011;38518;53.164;5.430;2023-02-12T07:53:35;58.53;;;27.95;;
51618;SDS011;38518;53.164;5.430;2023-02-12T07:56:12;58.80;;;27.17;;
51618;SDS011;38518;53.164;5.430;2023-02-12T07:58:40;56.30;;;27.20;;
51618;SDS011;38518;53.164;5.430;2023-02-12T08:01:20;61.53;;;29.05;;
51618;SDS011;38518;53.164;5.430;2023-02-12T08:03:47;55.22;;;24.45;;
51618;SDS011;38518;53.164;5.430;2023-02-12T08:06:15;59.50;;;29.63;;
51618;SDS011;38518;53.164;5.430;2023-02-12T08:08:43;56.88;;;29.25;;
51618;SDS011;38518;53.164;5.430;2023-02-12T08:11:10;51.85;;;26.88;;
51618;SDS011;38518;53.164;5.430;2023-02-12T08:13:37;47.80;;;21.70;;
51618;SDS011;38518;53.164;5.430;2023-02-12T08:16:04;44.70;;;20.70;;
51618;SDS011;38518;53.164;5.430;2023-02-12T08:18:34;51.53;;;27.65;;
51618;SDS011;38518;53.164;5.430;2023-02-12T08:21:01;56.75;;;28.48;;
51618;SDS011;38518;53.164;5.430;2023-02-12T08:23:32;57.33;;;22.98;;
51618;SDS011;38518;53.164;5.430;2023-02-12T08:26:14;54.03;;;28.33;;
51618;SDS011;38518;53.164;5.430;2023-02-12T08:28:46;55.72;;;28.83;;
51618;SDS011;38518;53.164;5.430;2023-02-12T08:31:15;61.42;;;28.02;;
51618;SDS011;38518;53.164;5.430;2023-02-12T08:33:44;65.72;;;31.80;;
51618;SDS011;38518;53.164;5.430;2023-02-12T08:36:12;51.75;;;27.48;;
51618;SDS011;38518;53.164;5.430;2023-02-12T08:38:40;59.17;;;25.30;;
51618;SDS011;38518;53.164;5.430;2023-02-12T08:41:08;53.95;;;27.95;;
51618;SDS011;38518;53.164;5.430;2023-02-12T08:43:44;56.08;;;24.88;;
51618;SDS011;38518;53.164;5.430;2023-02-12T08:46:11;54.80;;;26.10;;
51618;SDS011;38518;53.164;5.430;2023-02-12T08:48:39;57.65;;;29.30;;
51618;SDS011;38518;53.164;5.430;2023-02-12T08:51:09;49.70;;;27.27;;
51618;SDS011;38518;53.164;5.430;2023-02-12T08:53:37;53.47;;;28.83;;
51618;SDS011;38518;53.164;5.430;2023-02-12T08:56:04;50.75;;;26.80;;
51618;SDS011;38518;53.164;5.430;2023-02-12T08:58:33;47.25;;;22.15;;
51618;SDS011;38518;53.164;5.430;2023-02-12T09:01:08;46.10;;;26.25;;
51618;SDS011;38518;53.164;5.430;2023-02-12T09:03:35;42.75;;;24.45;;
51618;SDS011;38518;53.164;5.430;2023-02-12T09:06:01;41.90;;;25.95;;
51618;SDS011;38518;53.164;5.430;2023-02-12T09:08:28;47.50;;;21.75;;
51618;SDS011;38518;53.164;5.430;2023-02-12T09:10:54;49.03;;;27.33;;
51618;SDS011;38518;53.164;5.430;2023-02-12T09:13:19;44.50;;;25.38;;
51618;SDS011;38518;53.164;5.430;2023-02-12T09:15:45;39.92;;;24.27;;
51618;SDS011;38518;53.164;5.430;2023-02-12T09:18:12;44.88;;;26.20;;
51618;SDS011;38518;53.164;5.430;2023-02-12T09:20:39;48.78;;;26.55;;
51618;SDS011;38518;53.164;5.430;2023-02-12T09:23:06;39.38;;;23.50;;
51618;SDS011;38518;53.164;5.430;2023-02-12T09:25:34;48.63;;;22.27;;
51618;SDS011;38518;53.164;5.430;2023-02-12T09:28:03;37.38;;;23.45;;
51618;SDS011;38518;53.164;5.430;2023-02-12T09:30:30;40.92;;;24.77;;
51618;SDS011;38518;53.164;5.430;2023-02-12T09:32:56;39.65;;;24.88;;
51618;SDS011;38518;53.164;5.430;2023-02-12T09:35:22;40.17;;;24.35;;
51618;SDS011;38518;53.164;5.430;2023-02-12T09:37:48;39.92;;;24.30;;
51618;SDS011;38518;53.164;5.430;2023-02-12T09:40:34;44.83;;;26.42;;
51618;SDS011;38518;53.164;5.430;2023-02-12T09:51:15;42.88;;;26.38;;
51618;SDS011;38518;53.164;5.430;2023-02-12T09:53:42;37.95;;;25.00;;
51618;SDS011;38518;53.164;5.430;2023-02-12T09:56:12;44.08;;;22.48;;
51618;SDS011;38518;53.164;5.430;2023-02-12T09:58:50;45.75;;;27.48;;
51618;SDS011;38518;53.164;5.430;2023-02-12T10:01:22;41.90;;;26.55;;
51618;SDS011;38518;53.164;5.430;2023-02-12T10:03:51;42.47;;;21.45;;
51618;SDS011;38518;53.164;5.430;2023-02-12T10:09:13;42.22;;;27.00;;
51618;SDS011;38518;53.164;5.430;2023-02-12T10:11:48;34.00;;;24.45;;
51618;SDS011;38518;53.164;5.430;2023-02-12T10:17:14;33.97;;;24.85;;
51618;SDS011;38518;53.164;5.430;2023-02-12T10:31:16;41.05;;;27.45;;
51618;SDS011;38518;53.164;5.430;2023-02-12T10:33:49;41.97;;;27.83;;
51618;SDS011;38518;53.164;5.430;2023-02-12T10:41:56;40.37;;;26.67;;
51618;SDS011;38518;53.164;5.430;2023-02-12T10:44:27;37.10;;;25.77;;
51618;SDS011;38518;53.164;5.430;2023-02-12T10:46:53;36.13;;;25.80;;
51618;SDS011;38518;53.164;5.430;2023-02-12T10:49:19;33.95;;;25.50;;
51618;SDS011;38518;53.164;5.430;2023-02-12T10:54:46;33.65;;;20.17;;
51618;SDS011;38518;53.164;5.430;2023-02-12T10:57:14;34.20;;;25.95;;
51618;SDS011;38518;53.164;5.430;2023-02-12T10:59:46;38.58;;;26.05;;
51618;SDS011;38518;53.164;5.430;2023-02-12T11:02:17;35.85;;;25.38;;
51618;SDS011;38518;53.164;5.430;2023-02-12T11:04:55;33.25;;;19.20;;
51618;SDS011;38518;53.164;5.430;2023-02-12T11:07:23;33.80;;;22.95;;
51618;SDS011;38518;53.164;5.430;2023-02-12T11:09:51;32.65;;;24.70;;
51618;SDS011;38518;53.164;5.430;2023-02-12T11:12:20;34.47;;;24.80;;
51618;SDS011;38518;53.164;5.430;2023-02-12T11:15:03;31.30;;;23.90;;
51618;SDS011;38518;53.164;5.430;2023-02-12T11:17:38;31.23;;;24.58;;
51618;SDS011;38518;53.164;5.430;2023-02-12T11:22:48;32.53;;;24.17;;
51618;SDS011;38518;53.164;5.430;2023-02-12T11:25:15;32.75;;;24.38;;
51618;SDS011;38518;53.164;5.430;2023-02-12T11:27:41;30.80;;;22.35;;
51618;SDS011;38518;53.164;5.430;2023-02-12T11:32:42;30.00;;;22.30;;
51618;SDS011;38518;53.164;5.430;2023-02-12T11:35:15;28.20;;;22.10;;
51618;SDS011;38518;53.164;5.430;2023-02-12T11:37:47;26.08;;;21.27;;
51618;SDS011;38518;53.164;5.430;2023-02-12T11:40:22;29.85;;;21.95;;
51618;SDS011;38518;53.164;5.430;2023-02-12T11:42:49;27.90;;;22.05;;
51618;SDS011;38518;53.164;5.430;2023-02-12T11:45:19;27.67;;;22.17;;
51618;SDS011;38518;53.164;5.430;2023-02-12T11:47:46;27.35;;;16.48;;
51618;SDS011;38518;53.164;5.430;2023-02-12T11:50:31;25.60;;;20.52;;
51618;SDS011;38518;53.164;5.430;2023-02-12T11:53:05;26.20;;;20.52;;
51618;SDS011;38518;53.164;5.430;2023-02-12T11:55:37;26.00;;;21.38;;
51618;SDS011;38518;53.164;5.430;2023-02-12T12:00:49;23.35;;;19.40;;
51618;SDS011;38518;53.164;5.430;2023-02-12T12:03:29;23.50;;;19.05;;
51618;SDS011;38518;53.164;5.430;2023-02-12T12:06:39;23.92;;;16.40;;
51618;SDS011;38518;53.164;5.430;2023-02-12T12:09:23;20.00;;;16.58;;
51618;SDS011;38518;53.164;5.430;2023-02-12T12:17:55;21.40;;;16.73;;
51618;SDS011;38518;53.164;5.430;2023-02-12T12:20:48;19.38;;;16.05;;
51618;SDS011;38518;53.164;5.430;2023-02-12T12:23:24;20.73;;;17.65;;
51618;SDS011;38518;53.164;5.430;2023-02-12T12:26:17;21.65;;;15.85;;
51618;SDS011;38518;53.164;5.430;2023-02-12T12:29:09;21.33;;;17.45;;
51618;SDS011;38518;53.164;5.430;2023-02-12T12:34:23;24.30;;;18.27;;
51618;SDS011;38518;53.164;5.430;2023-02-12T12:39:38;19.55;;;17.33;;
51618;SDS011;38518;53.164;5.430;2023-02-12T12:50:23;20.67;;;17.90;;
51618;SDS011;38518;53.164;5.430;2023-02-12T13:12:12;23.80;;;16.35;;
51618;SDS011;38518;53.164;5.430;2023-02-12T13:20:56;21.13;;;16.83;;
51618;SDS011;38518;53.164;5.430;2023-02-12T13:25:59;17.05;;;15.30;;
51618;SDS011;38518;53.164;5.430;2023-02-12T13:28:49;20.80;;;16.90;;
51618;SDS011;38518;53.164;5.430;2023-02-12T13:31:23;18.70;;;16.63;;
51618;SDS011;38518;53.164;5.430;2023-02-12T13:33:57;17.90;;;15.90;;
51618;SDS011;38518;53.164;5.430;2023-02-12T13:36:26;16.63;;;14.77;;
51618;SDS011;38518;53.164;5.430;2023-02-12T13:39:00;16.73;;;14.95;;
51618;SDS011;38518;53.164;5.430;2023-02-12T13:41:33;16.08;;;14.30;;
51618;SDS011;38518;53.164;5.430;2023-02-12T13:44:05;15.38;;;13.77;;
51618;SDS011;38518;53.164;5.430;2023-02-12T13:46:43;16.38;;;13.40;;
51618;SDS011;38518;53.164;5.430;2023-02-12T13:57:35;17.63;;;15.73;;
51618;SDS011;38518;53.164;5.430;2023-02-12T14:00:01;17.00;;;13.75;;
51618;SDS011;38518;53.164;5.430;2023-02-12T14:05:01;16.42;;;13.07;;
51618;SDS011;38518;53.164;5.430;2023-02-12T14:07:48;14.18;;;12.73;;
51618;SDS011;38518;53.164;5.430;2023-02-12T14:15:44;15.77;;;14.18;;
51618;SDS011;38518;53.164;5.430;2023-02-12T14:20:47;15.18;;;13.68;;
51618;SDS011;38518;53.164;5.430;2023-02-12T14:23:33;16.05;;;14.27;;
51618;SDS011;38518;53.164;5.430;2023-02-12T14:28:28;14.32;;;12.93;;
51618;SDS011;38518;53.164;5.430;2023-02-12T14:33:42;14.88;;;13.38;;
51618;SDS011;38518;53.164;5.430;2023-02-12T14:39:01;14.73;;;13.23;;
51618;SDS011;38518;53.164;5.430;2023-02-12T14:46:49;14.93;;;13.30;;
51618;SDS011;38518;53.164;5.430;2023-02-12T14:49:22;15.07;;;13.15;;
51618;SDS011;38518;53.164;5.430;2023-02-12T14:57:28;14.07;;;12.60;;
51618;SDS011;38518;53.164;5.430;2023-02-12T15:00:18;16.00;;;13.32;;
51618;SDS011;38518;53.164;5.430;2023-02-12T15:08:14;15.70;;;14.00;;
51618;SDS011;38518;53.164;5.430;2023-02-12T15:11:02;16.42;;;14.73;;
51618;SDS011;38518;53.164;5.430;2023-02-12T15:22:33;17.17;;;15.23;;
51618;SDS011;38518;53.164;5.430;2023-02-12T15:27:53;19.58;;;14.98;;
51618;SDS011;38518;53.164;5.430;2023-02-12T15:30:25;18.13;;;15.95;;
51618;SDS011;38518;53.164;5.430;2023-02-12T15:32:54;18.05;;;16.15;;
51618;SDS011;38518;53.164;5.430;2023-02-12T15:35:23;18.35;;;16.45;;
51618;SDS011;38518;53.164;5.430;2023-02-12T15:37:51;17.45;;;14.75;;
51618;SDS011;38518;53.164;5.430;2023-02-12T15:40:18;15.35;;;13.75;;
51618;SDS011;38518;53.164;5.430;2023-02-12T15:42:54;16.77;;;13.80;;
51618;SDS011;38518;53.164;5.430;2023-02-12T15:45:26;14.52;;;13.02;;
51618;SDS011;38518;53.164;5.430;2023-02-12T15:48:03;15.57;;;13.93;;
51618;SDS011;38518;53.164;5.430;2023-02-12T15:50:44;15.52;;;14.02;;
51618;SDS011;38518;53.164;5.430;2023-02-12T15:53:17;17.02;;;12.93;;
51618;SDS011;38518;53.164;5.430;2023-02-12T15:55:45;16.60;;;14.85;;
51618;SDS011;38518;53.164;5.430;2023-02-12T16:01:00;17.83;;;15.93;;
51618;SDS011;38518;53.164;5.430;2023-02-12T16:03:32;17.85;;;15.90;;
51618;SDS011;38518;53.164;5.430;2023-02-12T16:06:00;19.85;;;13.57;;
51618;SDS011;38518;53.164;5.430;2023-02-12T16:08:35;19.08;;;15.55;;
51618;SDS011;38518;53.164;5.430;2023-02-12T16:11:02;16.85;;;14.82;;
51618;SDS011;38518;53.164;5.430;2023-02-12T16:13:38;17.77;;;15.77;;
51618;SDS011;38518;53.164;5.430;2023-02-12T16:16:39;17.40;;;14.60;;
51618;SDS011;38518;53.164;5.430;2023-02-12T16:27:33;16.15;;;14.27;;
51618;SDS011;38518;53.164;5.430;2023-02-12T16:29:55;19.05;;;14.27;;
51618;SDS011;38518;53.164;5.430;2023-02-12T16:35:03;17.27;;;15.27;;
51618;SDS011;38518;53.164;5.430;2023-02-12T16:45:35;16.65;;;14.85;;
51618;SDS011;38518;53.164;5.430;2023-02-12T16:50:45;18.60;;;16.63;;
51618;SDS011;38518;53.164;5.430;2023-02-12T16:53:23;19.80;;;17.70;;
51618;SDS011;38518;53.164;5.430;2023-02-12T16:55:51;20.42;;;18.27;;
51618;SDS011;38518;53.164;5.430;2023-02-12T16:58:17;20.33;;;15.30;;
51618;SDS011;38518;53.164;5.430;2023-02-12T17:00:43;20.70;;;18.20;;
51618;SDS011;38518;53.164;5.430;2023-02-12T17:03:12;20.02;;;17.15;;
51618;SDS011;38518;53.164;5.430;2023-02-12T17:05:39;16.95;;;15.05;;
51618;SDS011;38518;53.164;5.430;2023-02-12T17:08:11;16.73;;;15.05;;
51618;SDS011;38518;53.164;5.430;2023-02-12T17:10:38;17.20;;;15.48;;
51618;SDS011;38518;53.164;5.430;2023-02-12T17:13:04;17.70;;;15.80;;
51618;SDS011;38518;53.164;5.430;2023-02-12T17:15:32;16.77;;;14.00;;
51618;SDS011;38518;53.164;5.430;2023-02-12T17:18:06;17.70;;;15.98;;
51618;SDS011;38518;53.164;5.430;2023-02-12T17:20:35;16.80;;;14.73;;
51618;SDS011;38518;53.164;5.430;2023-02-12T17:23:01;18.65;;;15.70;;
51618;SDS011;38518;53.164;5.430;2023-02-12T17:25:28;18.77;;;16.88;;
51618;SDS011;38518;53.164;5.430;2023-02-12T17:27:55;18.42;;;15.88;;
51618;SDS011;38518;53.164;5.430;2023-02-12T17:30:20;19.00;;;16.02;;
51618;SDS011;38518;53.164;5.430;2023-02-12T17:32:48;15.93;;;14.32;;
51618;SDS011;38518;53.164;5.430;2023-02-12T17:35:14;16.67;;;14.77;;
51618;SDS011;38518;53.164;5.430;2023-02-12T17:37:40;17.30;;;13.65;;
51618;SDS011;38518;53.164;5.430;2023-02-12T17:40:06;16.67;;;14.77;;
51618;SDS011;38518;53.164;5.430;2023-02-12T17:42:32;16.77;;;14.90;;
51618;SDS011;38518;53.164;5.430;2023-02-12T17:44:58;16.15;;;14.52;;
51618;SDS011;38518;53.164;5.430;2023-02-12T17:47:24;16.65;;;14.95;;
51618;SDS011;38518;53.164;5.430;2023-02-12T17:49:49;15.68;;;14.07;;
51618;SDS011;38518;53.164;5.430;2023-02-12T17:52:15;16.70;;;13.02;;
51618;SDS011;38518;53.164;5.430;2023-02-12T17:54:44;15.75;;;14.18;;
51618;SDS011;38518;53.164;5.430;2023-02-12T17:57:10;16.38;;;14.57;;
51618;SDS011;38518;53.164;5.430;2023-02-12T17:59:36;16.67;;;14.93;;
51618;SDS011;38518;53.164;5.430;2023-02-12T18:02:02;18.23;;;16.33;;
51618;SDS011;38518;53.164;5.430;2023-02-12T18:04:32;17.13;;;15.32;;
51618;SDS011;38518;53.164;5.430;2023-02-12T18:07:01;18.98;;;13.85;;
51618;SDS011;38518;53.164;5.430;2023-02-12T18:09:27;17.02;;;14.75;;